sensor_id;sensor_type;location;lat;lon;timestamp;pressure;altitude;pressure_sealevel;temperature;humidity
56689;BME280;42565;53.342;-1.534;2023-07-24T00:00:16;97935.45;;;13.87;82.61
56689;BME280;42565;53.342;-1.534;2023-07-24T00:02:44;97932.73;;;13.23;82.86
56689;BME280;42565;53.342;-1.534;2023-07-24T00:05:10;97935.24;;;13.77;83.31
56689;BME280;42565;53.342;-1.534;2023-07-24T00:07:38;97938.32;;;13.27;82.68
56689;BME280;42565;53.342;-1.534;2023-07-24T00:10:06;97940.50;;;13.38;83.89
56689;BME280;42565;53.342;-1.534;2023-07-24T00:12:33;97943.70;;;13.02;83.07
56689;BME280;42565;53.342;-1.534;2023-07-24T00:15:01;97948.44;;;13.50;83.51
56689;BME280;42565;53.342;-1.534;2023-07-24T00:17:28;97948.96;;;13.89;82.09
56689;BME280;42565;53.342;-1.534;2023-07-24T00:19:55;97948.74;;;13.71;81.51
56689;BME280;42565;53.342;-1.534;2023-07-24T00:22:23;97949.12;;;14.60;80.40
56689;BME280;42565;53.342;-1.534;2023-07-24T00:24:51;97949.84;;;13.58;80.96
56689;BME280;42565;53.342;-1.534;2023-07-24T00:27:18;97948.24;;;13.94;81.48
56689;BME280;42565;53.342;-1.534;2023-07-24T00:29:45;97956.52;;;13.83;81.19
56689;BME280;42565;53.342;-1.534;2023-07-24T00:32:11;97952.55;;;13.90;81.55
56689;BME280;42565;53.342;-1.534;2023-07-24T00:34:39;97952.99;;;12.83;83.92
56689;BME280;42565;53.342;-1.534;2023-07-24T00:37:06;97950.97;;;13.83;81.38
56689;BME280;42565;53.342;-1.534;2023-07-24T00:39:34;97949.53;;;13.26;81.44
56689;BME280;42565;53.342;-1.534;2023-07-24T00:42:01;97954.10;;;13.60;82.10
56689;BME280;42565;53.342;-1.534;2023-07-24T00:44:29;97952.35;;;13.59;82.94
56689;BME280;42565;53.342;-1.534;2023-07-24T00:46:56;97952.52;;;13.33;82.74
56689;BME280;42565;53.342;-1.534;2023-07-24T00:49:23;97950.01;;;13.67;81.88
56689;BME280;42565;53.342;-1.534;2023-07-24T00:51:52;97952.28;;;13.46;82.09
56689;BME280;42565;53.342;-1.534;2023-07-24T00:54:19;97951.33;;;13.89;82.21
56689;BME280;42565;53.342;-1.534;2023-07-24T00:56:49;97950.55;;;12.89;83.12
56689;BME280;42565;53.342;-1.534;2023-07-24T00:59:16;97951.37;;;13.76;82.35
56689;BME280;42565;53.342;-1.534;2023-07-24T01:01:45;97951.13;;;12.96;83.03
56689;BME280;42565;53.342;-1.534;2023-07-24T01:04:13;97952.33;;;13.87;82.21
56689;BME280;42565;53.342;-1.534;2023-07-24T01:06:41;97952.70;;;13.20;82.38
56689;BME280;42565;53.342;-1.534;2023-07-24T01:09:09;97954.59;;;13.60;80.74
56689;BME280;42565;53.342;-1.534;2023-07-24T01:11:38;97957.04;;;12.95;80.94
56689;BME280;42565;53.342;-1.534;2023-07-24T01:14:18;97956.49;;;13.73;80.46
56689;BME280;42565;53.342;-1.534;2023-07-24T01:16:48;97955.24;;;13.27;81.27
56689;BME280;42565;53.342;-1.534;2023-07-24T01:19:21;97957.85;;;13.90;80.14
56689;BME280;42565;53.342;-1.534;2023-07-24T01:22:07;97957.82;;;13.58;80.45
56689;BME280;42565;53.342;-1.534;2023-07-24T01:24:49;97959.21;;;13.19;80.44
56689;BME280;42565;53.342;-1.534;2023-07-24T01:27:21;97956.43;;;13.74;80.81
56689;BME280;42565;53.342;-1.534;2023-07-24T01:29:50;97959.06;;;13.35;80.20
56689;BME280;42565;53.342;-1.534;2023-07-24T01:32:17;97957.69;;;13.98;80.17
56689;BME280;42565;53.342;-1.534;2023-07-24T01:34:45;97959.21;;;13.24;81.49
56689;BME280;42565;53.342;-1.534;2023-07-24T01:37:13;97962.46;;;13.18;83.30
56689;BME280;42565;53.342;-1.534;2023-07-24T01:39:41;97963.56;;;12.49;82.72
56689;BME280;42565;53.342;-1.534;2023-07-24T01:42:08;97959.86;;;13.40;82.24
56689;BME280;42565;53.342;-1.534;2023-07-24T01:44:36;97959.87;;;13.11;80.92
56689;BME280;42565;53.342;-1.534;2023-07-24T01:47:03;97961.42;;;13.95;79.97
56689;BME280;42565;53.342;-1.534;2023-07-24T01:49:31;97962.04;;;13.68;79.45
56689;BME280;42565;53.342;-1.534;2023-07-24T01:51:58;97961.97;;;13.91;79.28
56689;BME280;42565;53.342;-1.534;2023-07-24T01:54:25;97963.36;;;14.10;77.99
56689;BME280;42565;53.342;-1.534;2023-07-24T01:56:52;97960.90;;;13.60;80.24
56689;BME280;42565;53.342;-1.534;2023-07-24T01:59:20;97963.41;;;13.39;81.13
56689;BME280;42565;53.342;-1.534;2023-07-24T02:01:47;97963.31;;;13.76;80.80
56689;BME280;42565;53.342;-1.534;2023-07-24T02:04:15;97958.13;;;13.93;79.05
56689;BME280;42565;53.342;-1.534;2023-07-24T02:06:42;97956.18;;;13.66;80.84
56689;BME280;42565;53.342;-1.534;2023-07-24T02:09:10;97954.69;;;13.40;81.39
56689;BME280;42565;53.342;-1.534;2023-07-24T02:11:37;97951.38;;;12.82;81.64
56689;BME280;42565;53.342;-1.534;2023-07-24T02:14:04;97951.58;;;13.28;81.35
56689;BME280;42565;53.342;-1.534;2023-07-24T02:16:31;97950.71;;;13.29;80.83
56689;BME280;42565;53.342;-1.534;2023-07-24T02:18:58;97952.15;;;13.49;81.44
56689;BME280;42565;53.342;-1.534;2023-07-24T02:21:25;97949.57;;;13.80;81.81
56689;BME280;42565;53.342;-1.534;2023-07-24T02:23:53;97951.77;;;13.71;81.47
56689;BME280;42565;53.342;-1.534;2023-07-24T02:26:19;97951.61;;;13.60;81.30
56689;BME280;42565;53.342;-1.534;2023-07-24T02:28:47;97948.70;;;13.13;83.00
56689;BME280;42565;53.342;-1.534;2023-07-24T02:31:13;97948.90;;;13.78;80.86
56689;BME280;42565;53.342;-1.534;2023-07-24T02:33:41;97945.92;;;13.58;80.84
56689;BME280;42565;53.342;-1.534;2023-07-24T02:36:08;97947.06;;;14.14;81.25
56689;BME280;42565;53.342;-1.534;2023-07-24T02:38:36;97946.84;;;13.26;81.06
56689;BME280;42565;53.342;-1.534;2023-07-24T02:41:03;97944.44;;;13.85;79.97
56689;BME280;42565;53.342;-1.534;2023-07-24T02:43:30;97947.85;;;13.82;80.19
56689;BME280;42565;53.342;-1.534;2023-07-24T02:46:00;97951.78;;;14.04;79.75
56689;BME280;42565;53.342;-1.534;2023-07-24T02:48:28;97950.82;;;14.53;78.44
56689;BME280;42565;53.342;-1.534;2023-07-24T02:50:55;97954.37;;;14.18;79.09
56689;BME280;42565;53.342;-1.534;2023-07-24T02:53:23;97955.41;;;14.32;78.55
56689;BME280;42565;53.342;-1.534;2023-07-24T02:55:51;97954.19;;;14.27;77.55
56689;BME280;42565;53.342;-1.534;2023-07-24T02:58:18;97953.67;;;13.88;80.53
56689;BME280;42565;53.342;-1.534;2023-07-24T03:00:45;97951.04;;;13.57;81.75
56689;BME280;42565;53.342;-1.534;2023-07-24T03:03:11;97946.71;;;13.82;80.70
56689;BME280;42565;53.342;-1.534;2023-07-24T03:05:39;97945.50;;;13.27;80.50
56689;BME280;42565;53.342;-1.534;2023-07-24T03:08:06;97944.51;;;14.01;80.06
56689;BME280;42565;53.342;-1.534;2023-07-24T03:10:33;97943.38;;;13.62;79.95
56689;BME280;42565;53.342;-1.534;2023-07-24T03:13:00;97947.90;;;13.73;80.33
56689;BME280;42565;53.342;-1.534;2023-07-24T03:15:28;97946.38;;;14.06;80.46
56689;BME280;42565;53.342;-1.534;2023-07-24T03:17:55;97947.95;;;13.93;79.96
56689;BME280;42565;53.342;-1.534;2023-07-24T03:20:22;97948.87;;;14.21;79.92
56689;BME280;42565;53.342;-1.534;2023-07-24T03:22:49;97945.19;;;14.05;80.62
56689;BME280;42565;53.342;-1.534;2023-07-24T03:25:16;97944.27;;;14.49;79.46
56689;BME280;42565;53.342;-1.534;2023-07-24T03:27:43;97941.84;;;13.92;79.96
56689;BME280;42565;53.342;-1.534;2023-07-24T03:30:11;97943.27;;;14.01;80.83
56689;BME280;42565;53.342;-1.534;2023-07-24T03:32:38;97947.80;;;13.17;82.15
56689;BME280;42565;53.342;-1.534;2023-07-24T03:35:06;97946.19;;;14.17;81.11
56689;BME280;42565;53.342;-1.534;2023-07-24T03:37:34;97948.04;;;13.80;81.30
56689;BME280;42565;53.342;-1.534;2023-07-24T03:40:01;97946.54;;;14.09;81.43
56689;BME280;42565;53.342;-1.534;2023-07-24T03:42:30;97946.86;;;14.16;80.74
56689;BME280;42565;53.342;-1.534;2023-07-24T03:44:58;97948.00;;;13.95;81.79
56689;BME280;42565;53.342;-1.534;2023-07-24T03:47:25;97951.02;;;14.10;80.98
56689;BME280;42565;53.342;-1.534;2023-07-24T03:49:53;97951.08;;;14.21;80.36
56689;BME280;42565;53.342;-1.534;2023-07-24T03:52:21;97951.62;;;14.41;80.36
56689;BME280;42565;53.342;-1.534;2023-07-24T03:54:48;97949.20;;;14.20;79.52
56689;BME280;42565;53.342;-1.534;2023-07-24T03:57:16;97952.96;;;14.32;81.17
56689;BME280;42565;53.342;-1.534;2023-07-24T03:59:43;97950.34;;;13.70;81.39
56689;BME280;42565;53.342;-1.534;2023-07-24T04:02:11;97951.74;;;14.07;80.91
56689;BME280;42565;53.342;-1.534;2023-07-24T04:04:38;97952.00;;;13.38;81.11
56689;BME280;42565;53.342;-1.534;2023-07-24T04:07:05;97955.92;;;14.34;79.79
56689;BME280;42565;53.342;-1.534;2023-07-24T04:09:33;97954.72;;;13.56;82.42
56689;BME280;42565;53.342;-1.534;2023-07-24T04:12:00;97955.96;;;13.88;81.35
56689;BME280;42565;53.342;-1.534;2023-07-24T04:14:28;97961.43;;;13.95;81.38
56689;BME280;42565;53.342;-1.534;2023-07-24T04:16:55;97961.11;;;13.70;82.26
56689;BME280;42565;53.342;-1.534;2023-07-24T04:19:22;97964.88;;;14.11;80.97
56689;BME280;42565;53.342;-1.534;2023-07-24T04:21:49;97965.76;;;13.95;80.81
56689;BME280;42565;53.342;-1.534;2023-07-24T04:24:16;97963.68;;;13.93;80.99
56689;BME280;42565;53.342;-1.534;2023-07-24T04:26:43;97967.80;;;13.79;80.39
56689;BME280;42565;53.342;-1.534;2023-07-24T04:29:11;97968.93;;;14.02;80.27
56689;BME280;42565;53.342;-1.534;2023-07-24T04:31:38;97969.48;;;13.40;80.91
56689;BME280;42565;53.342;-1.534;2023-07-24T04:34:05;97969.80;;;14.09;81.34
56689;BME280;42565;53.342;-1.534;2023-07-24T04:36:32;97973.13;;;13.55;82.46
56689;BME280;42565;53.342;-1.534;2023-07-24T04:38:59;97973.81;;;13.94;81.07
56689;BME280;42565;53.342;-1.534;2023-07-24T04:41:27;97975.34;;;14.67;79.61
56689;BME280;42565;53.342;-1.534;2023-07-24T04:43:54;97984.68;;;14.13;80.76
56689;BME280;42565;53.342;-1.534;2023-07-24T04:46:21;97983.91;;;14.58;79.82
56689;BME280;42565;53.342;-1.534;2023-07-24T04:48:48;97984.29;;;13.60;80.16
56689;BME280;42565;53.342;-1.534;2023-07-24T04:51:15;97986.21;;;13.96;81.05
56689;BME280;42565;53.342;-1.534;2023-07-24T04:53:42;97987.93;;;13.35;81.50
56689;BME280;42565;53.342;-1.534;2023-07-24T04:56:09;97988.64;;;13.74;81.19
56689;BME280;42565;53.342;-1.534;2023-07-24T04:58:35;97995.33;;;12.94;82.38
56689;BME280;42565;53.342;-1.534;2023-07-24T05:01:03;97994.71;;;14.08;80.91
56689;BME280;42565;53.342;-1.534;2023-07-24T05:03:31;97996.45;;;13.68;80.37
56689;BME280;42565;53.342;-1.534;2023-07-24T05:05:59;97998.29;;;14.25;79.98
56689;BME280;42565;53.342;-1.534;2023-07-24T05:08:26;98000.38;;;13.90;81.44
56689;BME280;42565;53.342;-1.534;2023-07-24T05:10:54;98001.62;;;13.63;82.73
56689;BME280;42565;53.342;-1.534;2023-07-24T05:13:21;98004.14;;;13.99;82.27
56689;BME280;42565;53.342;-1.534;2023-07-24T05:15:49;98006.08;;;13.91;81.00
56689;BME280;42565;53.342;-1.534;2023-07-24T05:18:16;98002.04;;;13.74;81.74
56689;BME280;42565;53.342;-1.534;2023-07-24T05:20:45;98005.48;;;13.25;82.27
56689;BME280;42565;53.342;-1.534;2023-07-24T05:23:11;98013.09;;;13.70;81.97
56689;BME280;42565;53.342;-1.534;2023-07-24T05:25:39;98011.18;;;13.00;81.65
56689;BME280;42565;53.342;-1.534;2023-07-24T05:28:06;98012.08;;;14.04;80.24
56689;BME280;42565;53.342;-1.534;2023-07-24T05:30:33;98010.80;;;13.29;81.95
56689;BME280;42565;53.342;-1.534;2023-07-24T05:33:05;98012.82;;;13.49;81.96
56689;BME280;42565;53.342;-1.534;2023-07-24T05:35:32;98010.85;;;13.31;81.10
56689;BME280;42565;53.342;-1.534;2023-07-24T05:38:09;98018.03;;;13.63;81.80
56689;BME280;42565;53.342;-1.534;2023-07-24T05:40:37;98020.04;;;12.93;81.80
56689;BME280;42565;53.342;-1.534;2023-07-24T05:43:04;98022.19;;;13.45;81.60
56689;BME280;42565;53.342;-1.534;2023-07-24T05:45:32;98023.07;;;13.46;81.24
56689;BME280;42565;53.342;-1.534;2023-07-24T05:47:59;98025.23;;;13.60;81.41
56689;BME280;42565;53.342;-1.534;2023-07-24T05:50:26;98027.94;;;13.96;81.91
56689;BME280;42565;53.342;-1.534;2023-07-24T05:52:53;98030.24;;;13.74;81.15
56689;BME280;42565;53.342;-1.534;2023-07-24T05:55:21;98032.46;;;13.87;81.49
56689;BME280;42565;53.342;-1.534;2023-07-24T05:57:48;98031.40;;;13.48;81.09
56689;BME280;42565;53.342;-1.534;2023-07-24T06:00:17;98037.01;;;14.06;80.66
56689;BME280;42565;53.342;-1.534;2023-07-24T06:02:44;98034.78;;;13.59;79.50
56689;BME280;42565;53.342;-1.534;2023-07-24T06:05:12;98039.59;;;13.92;78.86
56689;BME280;42565;53.342;-1.534;2023-07-24T06:07:39;98036.74;;;14.07;79.28
56689;BME280;42565;53.342;-1.534;2023-07-24T06:10:07;98042.03;;;13.27;80.76
56689;BME280;42565;53.342;-1.534;2023-07-24T06:12:35;98041.72;;;12.49;82.45
56689;BME280;42565;53.342;-1.534;2023-07-24T06:15:02;98038.51;;;13.61;81.02
56689;BME280;42565;53.342;-1.534;2023-07-24T06:17:30;98048.19;;;13.44;80.30
56689;BME280;42565;53.342;-1.534;2023-07-24T06:19:57;98048.84;;;13.28;80.47
56689;BME280;42565;53.342;-1.534;2023-07-24T06:22:25;98049.15;;;13.42;80.83
56689;BME280;42565;53.342;-1.534;2023-07-24T06:24:52;98049.16;;;13.24;80.73
56689;BME280;42565;53.342;-1.534;2023-07-24T06:27:20;98050.68;;;13.66;80.51
56689;BME280;42565;53.342;-1.534;2023-07-24T06:29:48;98052.74;;;13.82;79.58
56689;BME280;42565;53.342;-1.534;2023-07-24T06:32:15;98052.64;;;13.67;80.62
56689;BME280;42565;53.342;-1.534;2023-07-24T06:34:42;98056.30;;;13.42;79.17
56689;BME280;42565;53.342;-1.534;2023-07-24T06:37:10;98059.02;;;13.83;79.81
56689;BME280;42565;53.342;-1.534;2023-07-24T06:39:38;98057.66;;;13.10;79.52
56689;BME280;42565;53.342;-1.534;2023-07-24T06:42:05;98060.40;;;13.74;78.78
56689;BME280;42565;53.342;-1.534;2023-07-24T06:44:32;98061.96;;;13.73;79.13
56689;BME280;42565;53.342;-1.534;2023-07-24T06:46:59;98064.91;;;13.67;79.70
56689;BME280;42565;53.342;-1.534;2023-07-24T06:49:27;98065.01;;;13.97;80.16
56689;BME280;42565;53.342;-1.534;2023-07-24T06:51:54;98066.31;;;13.49;79.33
56689;BME280;42565;53.342;-1.534;2023-07-24T06:54:21;98068.00;;;13.68;78.54
56689;BME280;42565;53.342;-1.534;2023-07-24T06:56:48;98073.83;;;13.36;79.43
56689;BME280;42565;53.342;-1.534;2023-07-24T06:59:16;98076.89;;;13.87;79.01
56689;BME280;42565;53.342;-1.534;2023-07-24T07:01:43;98075.93;;;13.64;77.55
56689;BME280;42565;53.342;-1.534;2023-07-24T07:04:11;98076.00;;;13.80;80.23
56689;BME280;42565;53.342;-1.534;2023-07-24T07:06:38;98074.21;;;13.21;79.10
56689;BME280;42565;53.342;-1.534;2023-07-24T07:09:06;98074.75;;;13.64;78.93
56689;BME280;42565;53.342;-1.534;2023-07-24T07:11:33;98077.64;;;13.26;78.32
56689;BME280;42565;53.342;-1.534;2023-07-24T07:14:00;98079.92;;;13.96;77.38
56689;BME280;42565;53.342;-1.534;2023-07-24T07:16:27;98080.35;;;13.79;78.51
56689;BME280;42565;53.342;-1.534;2023-07-24T07:18:54;98078.38;;;13.79;77.21
56689;BME280;42565;53.342;-1.534;2023-07-24T07:21:21;98084.38;;;14.10;77.93
56689;BME280;42565;53.342;-1.534;2023-07-24T07:23:49;98088.98;;;13.75;77.85
56689;BME280;42565;53.342;-1.534;2023-07-24T07:26:16;98089.43;;;13.87;78.17
56689;BME280;42565;53.342;-1.534;2023-07-24T07:28:44;98094.10;;;13.29;78.41
56689;BME280;42565;53.342;-1.534;2023-07-24T07:31:11;98099.26;;;14.27;78.23
56689;BME280;42565;53.342;-1.534;2023-07-24T07:33:38;98098.35;;;13.41;78.76
56689;BME280;42565;53.342;-1.534;2023-07-24T07:36:05;98104.10;;;14.01;78.05
56689;BME280;42565;53.342;-1.534;2023-07-24T07:38:33;98102.16;;;13.60;78.16
56689;BME280;42565;53.342;-1.534;2023-07-24T07:41:04;98100.54;;;13.65;80.00
56689;BME280;42565;53.342;-1.534;2023-07-24T07:43:32;98100.88;;;13.83;78.33
56689;BME280;42565;53.342;-1.534;2023-07-24T07:45:59;98102.96;;;14.39;77.78
56689;BME280;42565;53.342;-1.534;2023-07-24T07:48:27;98104.79;;;14.30;77.16
56689;BME280;42565;53.342;-1.534;2023-07-24T07:50:54;98107.30;;;14.15;77.85
56689;BME280;42565;53.342;-1.534;2023-07-24T07:53:22;98105.50;;;14.35;77.57
56689;BME280;42565;53.342;-1.534;2023-07-24T07:55:55;98109.22;;;14.38;77.19
56689;BME280;42565;53.342;-1.534;2023-07-24T07:58:23;98111.56;;;14.11;78.07
56689;BME280;42565;53.342;-1.534;2023-07-24T08:00:50;98110.94;;;14.26;78.01
56689;BME280;42565;53.342;-1.534;2023-07-24T08:03:18;98112.68;;;14.43;77.88
56689;BME280;42565;53.342;-1.534;2023-07-24T08:05:45;98123.05;;;14.09;77.01
56689;BME280;42565;53.342;-1.534;2023-07-24T08:08:13;98125.77;;;14.43;78.47
56689;BME280;42565;53.342;-1.534;2023-07-24T08:10:45;98127.42;;;13.79;78.37
56689;BME280;42565;53.342;-1.534;2023-07-24T08:13:12;98132.79;;;14.60;79.12
56689;BME280;42565;53.342;-1.534;2023-07-24T08:15:44;98126.17;;;13.91;79.47
56689;BME280;42565;53.342;-1.534;2023-07-24T08:18:31;98126.02;;;14.57;77.24
56689;BME280;42565;53.342;-1.534;2023-07-24T08:20:58;98127.52;;;14.69;75.83
56689;BME280;42565;53.342;-1.534;2023-07-24T08:23:25;98127.56;;;14.60;76.83
56689;BME280;42565;53.342;-1.534;2023-07-24T08:25:53;98128.16;;;14.49;77.77
56689;BME280;42565;53.342;-1.534;2023-07-24T08:28:21;98132.02;;;14.77;76.88
56689;BME280;42565;53.342;-1.534;2023-07-24T08:30:56;98138.67;;;14.58;78.18
56689;BME280;42565;53.342;-1.534;2023-07-24T08:33:23;98141.27;;;14.59;76.67
56689;BME280;42565;53.342;-1.534;2023-07-24T08:35:59;98145.63;;;14.82;74.90
56689;BME280;42565;53.342;-1.534;2023-07-24T08:38:25;98147.44;;;15.22;75.00
56689;BME280;42565;53.342;-1.534;2023-07-24T08:41:02;98147.59;;;15.04;73.17
56689;BME280;42565;53.342;-1.534;2023-07-24T08:43:35;98153.89;;;15.46;72.88
56689;BME280;42565;53.342;-1.534;2023-07-24T08:46:04;98152.67;;;15.24;73.90
56689;BME280;42565;53.342;-1.534;2023-07-24T08:48:33;98160.08;;;15.68;72.70
56689;BME280;42565;53.342;-1.534;2023-07-24T08:51:01;98163.10;;;15.43;72.19
56689;BME280;42565;53.342;-1.534;2023-07-24T08:53:29;98160.92;;;15.60;73.08
56689;BME280;42565;53.342;-1.534;2023-07-24T08:55:57;98161.47;;;15.51;73.38
56689;BME280;42565;53.342;-1.534;2023-07-24T08:58:26;98160.91;;;14.90;74.88
56689;BME280;42565;53.342;-1.534;2023-07-24T09:00:53;98161.69;;;15.07;75.56
56689;BME280;42565;53.342;-1.534;2023-07-24T09:03:20;98166.32;;;14.71;75.88
56689;BME280;42565;53.342;-1.534;2023-07-24T09:05:48;98161.62;;;14.83;76.48
56689;BME280;42565;53.342;-1.534;2023-07-24T09:08:31;98160.39;;;15.80;74.64
56689;BME280;42565;53.342;-1.534;2023-07-24T09:11:00;98155.96;;;16.01;73.19
56689;BME280;42565;53.342;-1.534;2023-07-24T09:13:29;98160.50;;;15.91;72.58
56689;BME280;42565;53.342;-1.534;2023-07-24T09:15:56;98162.55;;;15.86;72.01
56689;BME280;42565;53.342;-1.534;2023-07-24T09:18:24;98162.51;;;16.17;72.82
56689;BME280;42565;53.342;-1.534;2023-07-24T09:20:51;98164.65;;;16.11;70.84
56689;BME280;42565;53.342;-1.534;2023-07-24T09:23:26;98165.97;;;16.08;70.29
56689;BME280;42565;53.342;-1.534;2023-07-24T09:25:54;98166.40;;;16.00;68.00
56689;BME280;42565;53.342;-1.534;2023-07-24T09:28:22;98168.38;;;16.48;68.79
56689;BME280;42565;53.342;-1.534;2023-07-24T09:30:53;98169.24;;;16.46;70.09
56689;BME280;42565;53.342;-1.534;2023-07-24T09:33:21;98167.78;;;16.43;69.37
56689;BME280;42565;53.342;-1.534;2023-07-24T09:35:57;98171.83;;;15.75;70.73
56689;BME280;42565;53.342;-1.534;2023-07-24T09:38:25;98174.70;;;16.42;67.52
56689;BME280;42565;53.342;-1.534;2023-07-24T09:40:53;98178.50;;;16.22;67.46
56689;BME280;42565;53.342;-1.534;2023-07-24T09:43:22;98173.77;;;16.57;69.45
56689;BME280;42565;53.342;-1.534;2023-07-24T09:45:51;98177.19;;;16.29;70.28
56689;BME280;42565;53.342;-1.534;2023-07-24T09:48:20;98176.32;;;16.72;67.89
56689;BME280;42565;53.342;-1.534;2023-07-24T09:50:48;98176.52;;;16.13;66.03
56689;BME280;42565;53.342;-1.534;2023-07-24T09:53:21;98176.66;;;16.88;66.41
56689;BME280;42565;53.342;-1.534;2023-07-24T09:55:54;98177.98;;;16.78;70.36
56689;BME280;42565;53.342;-1.534;2023-07-24T09:58:24;98179.19;;;16.93;67.38
56689;BME280;42565;53.342;-1.534;2023-07-24T10:00:52;98178.99;;;17.06;65.54
56689;BME280;42565;53.342;-1.534;2023-07-24T10:03:21;98180.72;;;17.00;68.05
56689;BME280;42565;53.342;-1.534;2023-07-24T10:05:49;98183.83;;;16.17;68.70
56689;BME280;42565;53.342;-1.534;2023-07-24T10:08:18;98176.21;;;16.94;68.53
56689;BME280;42565;53.342;-1.534;2023-07-24T10:10:45;98174.11;;;17.21;66.25
56689;BME280;42565;53.342;-1.534;2023-07-24T10:13:13;98177.47;;;17.66;65.67
56689;BME280;42565;53.342;-1.534;2023-07-24T10:15:42;98178.07;;;16.81;65.11
56689;BME280;42565;53.342;-1.534;2023-07-24T10:18:10;98182.93;;;17.62;62.84
56689;BME280;42565;53.342;-1.534;2023-07-24T10:20:43;98186.89;;;16.63;63.55
56689;BME280;42565;53.342;-1.534;2023-07-24T10:23:16;98186.36;;;17.70;62.84
56689;BME280;42565;53.342;-1.534;2023-07-24T10:25:45;98184.09;;;17.53;62.81
56689;BME280;42565;53.342;-1.534;2023-07-24T10:28:12;98191.81;;;17.64;62.00
56689;BME280;42565;53.342;-1.534;2023-07-24T10:30:40;98193.39;;;16.46;62.29
56689;BME280;42565;53.342;-1.534;2023-07-24T10:33:08;98195.10;;;17.28;62.26
56689;BME280;42565;53.342;-1.534;2023-07-24T10:35:38;98190.62;;;16.36;63.08
56689;BME280;42565;53.342;-1.534;2023-07-24T10:38:06;98191.11;;;17.21;66.36
56689;BME280;42565;53.342;-1.534;2023-07-24T10:40:34;98194.84;;;17.29;64.78
56689;BME280;42565;53.342;-1.534;2023-07-24T10:43:04;98192.85;;;17.35;65.55
56689;BME280;42565;53.342;-1.534;2023-07-24T10:45:41;98197.63;;;17.06;63.33
56689;BME280;42565;53.342;-1.534;2023-07-24T10:48:08;98197.40;;;17.28;64.83
56689;BME280;42565;53.342;-1.534;2023-07-24T10:50:37;98188.30;;;17.26;65.85
56689;BME280;42565;53.342;-1.534;2023-07-24T10:53:04;98195.77;;;17.67;67.84
56689;BME280;42565;53.342;-1.534;2023-07-24T10:55:41;98193.18;;;18.19;60.51
56689;BME280;42565;53.342;-1.534;2023-07-24T10:58:10;98193.59;;;18.53;61.25
56689;BME280;42565;53.342;-1.534;2023-07-24T11:00:38;98200.63;;;17.34;63.26
56689;BME280;42565;53.342;-1.534;2023-07-24T11:03:08;98201.00;;;18.33;61.47
56689;BME280;42565;53.342;-1.534;2023-07-24T11:05:39;98206.14;;;18.17;61.09
56689;BME280;42565;53.342;-1.534;2023-07-24T11:08:10;98208.75;;;17.82;62.77
56689;BME280;42565;53.342;-1.534;2023-07-24T11:10:38;98210.00;;;17.50;62.71
56689;BME280;42565;53.342;-1.534;2023-07-24T11:13:10;98220.74;;;17.88;61.40
56689;BME280;42565;53.342;-1.534;2023-07-24T11:15:37;98221.33;;;16.86;62.38
56689;BME280;42565;53.342;-1.534;2023-07-24T11:18:04;98221.68;;;17.98;61.90
56689;BME280;42565;53.342;-1.534;2023-07-24T11:20:31;98219.15;;;17.99;62.37
56689;BME280;42565;53.342;-1.534;2023-07-24T11:22:59;98222.33;;;17.08;64.67
56689;BME280;42565;53.342;-1.534;2023-07-24T11:25:27;98228.76;;;18.15;63.23
56689;BME280;42565;53.342;-1.534;2023-07-24T11:27:54;98225.97;;;17.44;60.25
56689;BME280;42565;53.342;-1.534;2023-07-24T11:30:22;98227.06;;;18.00;60.66
56689;BME280;42565;53.342;-1.534;2023-07-24T11:32:49;98225.47;;;17.88;58.83
56689;BME280;42565;53.342;-1.534;2023-07-24T11:35:17;98230.34;;;18.37;60.52
56689;BME280;42565;53.342;-1.534;2023-07-24T11:37:46;98224.94;;;17.78;59.11
56689;BME280;42565;53.342;-1.534;2023-07-24T11:40:13;98229.05;;;17.90;59.99
56689;BME280;42565;53.342;-1.534;2023-07-24T11:42:43;98224.71;;;17.80;57.79
56689;BME280;42565;53.342;-1.534;2023-07-24T11:45:10;98227.40;;;18.28;58.88
56689;BME280;42565;53.342;-1.534;2023-07-24T11:47:46;98229.89;;;18.03;59.08
56689;BME280;42565;53.342;-1.534;2023-07-24T11:50:14;98234.67;;;18.59;58.65
56689;BME280;42565;53.342;-1.534;2023-07-24T11:52:42;98236.48;;;18.56;56.66
56689;BME280;42565;53.342;-1.534;2023-07-24T11:55:10;98237.03;;;18.74;58.63
56689;BME280;42565;53.342;-1.534;2023-07-24T11:57:37;98236.62;;;18.30;59.44
56689;BME280;42565;53.342;-1.534;2023-07-24T12:00:17;98234.71;;;19.40;59.88
56689;BME280;42565;53.342;-1.534;2023-07-24T12:02:44;98239.18;;;20.30;54.55
56689;BME280;42565;53.342;-1.534;2023-07-24T12:05:12;98238.35;;;19.58;55.52
56689;BME280;42565;53.342;-1.534;2023-07-24T12:07:39;98240.07;;;19.17;56.80
56689;BME280;42565;53.342;-1.534;2023-07-24T12:10:09;98235.56;;;20.78;55.11
56689;BME280;42565;53.342;-1.534;2023-07-24T12:12:38;98237.39;;;20.16;53.39
56689;BME280;42565;53.342;-1.534;2023-07-24T12:15:06;98234.70;;;20.48;52.38
56689;BME280;42565;53.342;-1.534;2023-07-24T12:17:33;98235.70;;;20.33;50.27
56689;BME280;42565;53.342;-1.534;2023-07-24T12:20:01;98234.59;;;20.25;52.83
56689;BME280;42565;53.342;-1.534;2023-07-24T12:22:29;98234.94;;;19.96;52.16
56689;BME280;42565;53.342;-1.534;2023-07-24T12:24:56;98234.21;;;20.07;51.02
56689;BME280;42565;53.342;-1.534;2023-07-24T12:27:23;98235.66;;;20.33;51.32
56689;BME280;42565;53.342;-1.534;2023-07-24T12:29:51;98234.67;;;20.44;52.81
56689;BME280;42565;53.342;-1.534;2023-07-24T12:32:18;98239.66;;;19.88;54.10
56689;BME280;42565;53.342;-1.534;2023-07-24T12:34:47;98239.17;;;19.02;52.72
56689;BME280;42565;53.342;-1.534;2023-07-24T12:37:14;98239.24;;;19.12;52.42
56689;BME280;42565;53.342;-1.534;2023-07-24T12:39:43;98235.26;;;19.33;53.12
56689;BME280;42565;53.342;-1.534;2023-07-24T12:42:11;98241.34;;;20.00;54.03
56689;BME280;42565;53.342;-1.534;2023-07-24T12:44:38;98242.21;;;19.64;53.93
56689;BME280;42565;53.342;-1.534;2023-07-24T12:47:05;98243.97;;;20.33;50.63
56689;BME280;42565;53.342;-1.534;2023-07-24T12:49:33;98243.19;;;20.20;52.99
56689;BME280;42565;53.342;-1.534;2023-07-24T12:52:00;98235.89;;;19.72;52.06
56689;BME280;42565;53.342;-1.534;2023-07-24T12:54:28;98235.14;;;20.03;51.58